Terminal Aerodrome Forecast
Issued by NWS

Home | Current Version | Previous Version | Text Only | Print | Product List | Glossary On
Versions: 1 2 3 4 5 6 7 8 9 10 11 12 13 14 15 16
000
FTUS42 KMLB 302339
TAFISM
TAF
KISM 302339Z 3100/3124 20008KT P6SM FEW080
     FM310400 18002KT P6SM FEW030 BKN120
     FM310600 20002KT P6SM FEW010 SCT250
     FM311400 26005KT P6SM SCT035
     FM312000 24005KT P6SM VCTS SCT035CB BKN250
      AMD NOT SKED 3102/3111=

USA.gov is the U.S. government's official web portal to all federal, state and local government web resources and services.